createdAt,value
2019-04-14T00:04:42.498Z,10.70
2019-04-14T00:09:58.438Z,10.37
2019-04-14T00:15:24.476Z,9.47
2019-04-14T00:20:29.798Z,9.63
2019-04-14T00:25:45.433Z,8.97
2019-04-14T00:31:00.453Z,8.97
2019-04-14T00:36:26.098Z,9.90
2019-04-14T00:41:55.181Z,8.90
2019-04-14T00:47:15.721Z,8.87
2019-04-14T00:52:30.363Z,9.00
2019-04-14T00:57:46.061Z,9.40
2019-04-14T01:03:02.746Z,9.27
2019-04-14T01:08:18.527Z,9.40
2019-04-14T01:13:35.319Z,9.90
2019-04-14T01:18:49.753Z,9.43
2019-04-14T01:24:05.235Z,11.10
2019-04-14T01:29:20.960Z,9.80
2019-04-14T01:34:36.904Z,10.03
2019-04-14T01:39:52.505Z,11.30
2019-04-14T01:45:10.002Z,11.50
2019-04-14T01:50:34.475Z,11.07
2019-04-14T01:56:10.149Z,12.87
2019-04-14T02:01:30.263Z,12.70
2019-04-14T02:06:44.652Z,13.03
2019-04-14T02:11:59.498Z,13.37
2019-04-14T02:17:15.274Z,13.80
2019-04-14T02:22:31.201Z,12.37
2019-04-14T02:27:47.257Z,13.57
2019-04-14T02:33:32.172Z,12.93
2019-04-14T02:38:48.963Z,13.40
2019-04-14T02:44:05.008Z,14.17
2019-04-14T02:49:11.129Z,13.63
2019-04-14T02:54:55.272Z,13.27
2019-04-14T02:59:49.925Z,13.97
2019-04-14T03:21:13.662Z,13.70
2019-04-14T03:26:35.604Z,14.07
2019-04-14T03:37:16.280Z,16.27
2019-04-14T03:42:29.386Z,16.40
2019-04-14T03:47:31.028Z,14.33
2019-04-14T03:53:06.561Z,15.93
2019-04-14T03:57:45.492Z,15.20
2019-04-14T04:03:02.093Z,14.27
2019-04-14T04:08:18.016Z,15.60
2019-04-14T04:13:34.457Z,14.63
2019-04-14T04:18:57.876Z,17.27
2019-04-14T04:24:19.554Z,14.27
2019-04-14T04:29:46.851Z,15.20
2019-04-14T04:35:26.563Z,14.53
2019-04-14T04:40:41.883Z,15.93
2019-04-14T04:45:56.330Z,14.67
2019-04-14T04:51:11.714Z,15.83
2019-04-14T04:56:27.540Z,15.40
2019-04-14T05:01:42.924Z,16.43
2019-04-14T05:06:59.395Z,16.03
2019-04-14T05:12:48.059Z,16.00
2019-04-14T05:18:02.751Z,15.53
2019-04-14T05:23:17.609Z,16.80
2019-04-14T05:28:33.385Z,15.53
2019-04-14T05:33:48.945Z,15.23
2019-04-14T05:39:04.594Z,15.83
2019-04-14T05:44:20.679Z,15.43
2019-04-14T05:49:44.301Z,16.47
2019-04-14T05:54:51.882Z,15.17
2019-04-14T06:00:14.524Z,17.33
2019-04-14T06:05:29.565Z,16.03
2019-04-14T06:10:43.695Z,16.93
2019-04-14T06:15:58.055Z,16.50
2019-04-14T06:21:13.689Z,16.80
2019-04-14T06:26:29.416Z,17.57
2019-04-14T06:32:18.628Z,16.93
2019-04-14T06:37:40.269Z,16.13
2019-04-14T06:42:54.494Z,15.93
2019-04-14T06:48:09.217Z,16.70
2019-04-14T06:53:23.857Z,16.97
2019-04-14T06:58:38.694Z,17.97
2019-04-14T07:03:56.053Z,17.20
2019-04-14T07:09:10.694Z,15.73
2019-04-14T07:14:25.278Z,17.40
2019-04-14T07:19:40.025Z,18.40
2019-04-14T07:24:54.489Z,17.67
2019-04-14T07:30:18.423Z,15.40
2019-04-14T07:35:55.082Z,17.70
2019-04-14T07:41:22.932Z,17.03
2019-04-14T07:46:44.031Z,16.83
2019-04-14T07:52:18.240Z,16.83
2019-04-14T07:57:50.789Z,18.00
2019-04-14T08:03:24.114Z,17.40
2019-04-14T08:08:39.355Z,17.00
2019-04-14T08:13:53.896Z,16.83
2019-04-14T08:19:08.559Z,16.40
2019-04-14T08:24:22.826Z,17.10
2019-04-14T08:29:37.336Z,16.23
2019-04-14T08:34:51.966Z,17.53
2019-04-14T08:40:07.940Z,17.20
2019-04-14T08:45:40.798Z,16.80
2019-04-14T08:51:17.247Z,18.27
2019-04-14T08:56:43.799Z,16.87
2019-04-14T09:02:16.709Z,18.23
2019-04-14T09:07:39.119Z,17.20
2019-04-14T09:12:54.936Z,17.33
2019-04-14T09:18:09.279Z,16.33
2019-04-14T09:24:01.851Z,18.00
2019-04-14T09:41:50.692Z,14.73
2019-04-14T09:47:05.416Z,17.17
2019-04-14T09:52:30.293Z,16.13
2019-04-14T09:57:52.900Z,16.00
2019-04-14T10:03:07.553Z,27.30
2019-04-14T10:08:22.381Z,25.60
2019-04-14T10:13:36.883Z,25.07
2019-04-14T10:18:51.501Z,24.77
2019-04-14T10:24:06.273Z,22.73
2019-04-14T10:29:20.931Z,21.83
2019-04-14T10:34:35.942Z,21.57
2019-04-14T10:39:53.374Z,20.53
2019-04-14T10:45:10.264Z,19.00
2019-04-14T10:50:30.616Z,20.07
2019-04-14T10:55:40.723Z,19.00
2019-04-14T11:00:55.239Z,18.67
2019-04-14T11:06:17.630Z,18.37
2019-04-14T11:11:32.145Z,17.33
2019-04-14T11:16:46.839Z,17.30
2019-04-14T11:22:01.368Z,16.73
2019-04-14T11:27:16.073Z,16.13
2019-04-14T11:32:50.682Z,17.37
2019-04-14T11:38:31.349Z,16.53
2019-04-14T11:43:45.996Z,17.07
2019-04-14T11:49:00.937Z,16.17
2019-04-14T11:54:15.719Z,16.33
2019-04-14T11:59:38.240Z,15.87
2019-04-14T12:04:56.663Z,15.67
2019-04-14T12:10:21.000Z,15.90
2019-04-14T12:15:35.914Z,15.47
2019-04-14T12:20:50.446Z,14.80
2019-04-14T12:26:05.982Z,14.93
2019-04-14T12:31:21.858Z,14.77
2019-04-14T12:36:36.497Z,15.70
2019-04-14T12:42:03.720Z,14.83
2019-04-14T12:47:49.631Z,14.97
2019-04-14T12:53:04.270Z,14.43
2019-04-14T12:58:19.973Z,14.33
2019-04-14T13:03:36.847Z,14.63
2019-04-14T13:08:51.798Z,13.90
2019-04-14T13:14:07.990Z,14.00
2019-04-14T13:19:23.877Z,13.20
2019-04-14T13:24:38.871Z,12.63
2019-04-14T13:29:53.606Z,11.27
2019-04-14T13:35:09.405Z,12.27
2019-04-14T13:40:23.931Z,11.00
2019-04-14T13:45:38.507Z,13.00
2019-04-14T13:50:53.234Z,11.77
2019-04-14T13:56:07.933Z,11.60
2019-04-14T14:01:22.621Z,11.43
2019-04-14T14:06:46.717Z,11.80
2019-04-14T14:12:29.421Z,10.30
2019-04-14T14:18:06.981Z,11.47
2019-04-14T14:23:29.322Z,11.33
2019-04-14T14:28:43.678Z,11.60
2019-04-14T14:33:59.119Z,10.43
2019-04-14T14:39:16.173Z,10.83
2019-04-14T14:44:38.923Z,9.70
2019-04-14T14:50:12.836Z,9.30
2019-04-14T14:55:27.496Z,9.00
2019-04-14T15:00:42.051Z,10.23
2019-04-14T15:05:56.416Z,9.83
2019-04-14T15:11:11.172Z,8.50
2019-04-14T15:16:25.956Z,8.73
2019-04-14T15:21:40.597Z,8.83
2019-04-14T15:26:55.537Z,7.97
2019-04-14T16:08:55.593Z,7.90
2019-04-14T16:14:31.975Z,8.67
2019-04-14T16:19:50.059Z,8.70
2019-04-14T16:25:05.115Z,8.20
2019-04-14T16:30:48.292Z,7.03
2019-04-14T16:36:02.799Z,7.67
2019-04-14T16:41:20.077Z,8.33
2019-04-14T16:46:33.450Z,8.63
2019-04-14T16:51:59.133Z,7.87
2019-04-14T16:57:32.705Z,7.57
2019-04-14T17:02:50.045Z,7.40
2019-04-14T17:08:03.612Z,7.50
2019-04-14T17:13:18.310Z,7.70
2019-04-14T17:19:10.696Z,7.03
2019-04-14T17:24:43.337Z,7.33
2019-04-14T17:30:21.736Z,7.50
2019-04-14T17:35:54.153Z,7.03
2019-04-14T17:41:20.243Z,7.63
2019-04-14T17:46:52.500Z,6.77
2019-04-14T17:52:25.551Z,8.03
2019-04-14T17:57:59.192Z,8.17
2019-04-14T18:03:33.222Z,7.23
2019-04-14T18:09:21.464Z,7.33
2019-04-14T18:14:42.530Z,8.07
2019-04-14T18:20:01.610Z,8.00
2019-04-14T18:31:04.863Z,7.63
2019-04-14T18:50:07.203Z,7.40
2019-04-14T18:55:32.816Z,7.17
2019-04-14T19:01:01.108Z,7.63
2019-04-14T19:06:15.721Z,7.33
2019-04-14T19:11:47.501Z,7.33
2019-04-14T19:17:06.305Z,7.30
2019-04-14T19:22:20.894Z,7.03
2019-04-14T19:27:35.478Z,7.67
2019-04-14T19:32:57.567Z,7.57
2019-04-14T19:38:12.326Z,7.13
2019-04-14T19:43:26.813Z,8.17
2019-04-14T19:48:43.656Z,7.67
2019-04-14T19:53:57.875Z,7.80
2019-04-14T19:59:12.401Z,7.20
2019-04-14T20:04:27.086Z,7.07
2019-04-14T20:09:41.668Z,6.13
2019-04-14T20:14:57.381Z,6.43
2019-04-14T20:20:27.479Z,6.40
2019-04-14T20:26:19.380Z,6.97
2019-04-14T20:31:55.942Z,5.93
2019-04-14T20:37:12.084Z,6.67
2019-04-14T20:42:28.980Z,7.07
2019-04-14T20:47:44.257Z,6.80
2019-04-14T20:52:58.624Z,6.97
2019-04-14T20:58:13.349Z,7.10
2019-04-14T21:03:40.988Z,7.43
2019-04-14T21:09:19.095Z,6.07
2019-04-14T21:14:56.221Z,6.43
2019-04-14T21:20:18.920Z,6.37
2019-04-14T21:26:01.203Z,5.53
2019-04-14T21:31:34.673Z,6.60
2019-04-14T21:37:06.532Z,6.27
2019-04-14T21:42:21.586Z,5.83
2019-04-14T21:47:36.020Z,5.73
2019-04-14T21:52:50.693Z,5.80
2019-04-14T21:58:37.012Z,6.00
2019-04-14T22:04:14.812Z,6.13
2019-04-14T22:09:36.149Z,6.00
2019-04-14T22:14:50.732Z,5.47
2019-04-14T22:20:05.715Z,5.50
2019-04-14T22:25:20.262Z,5.77
2019-04-14T22:30:34.784Z,5.10
2019-04-14T22:35:49.298Z,5.37
2019-04-14T22:41:05.420Z,5.20
2019-04-14T22:46:20.047Z,5.10
2019-04-14T22:51:34.930Z,5.70
2019-04-14T22:56:49.532Z,4.53
2019-04-14T23:02:10.201Z,4.43
2019-04-14T23:07:49.662Z,4.93
2019-04-14T23:13:32.888Z,5.07
2019-04-14T23:18:59.664Z,4.70
2019-04-14T23:24:20.094Z,5.37
2019-04-14T23:29:34.732Z,5.13
2019-04-14T23:34:51.880Z,4.83
2019-04-14T23:40:06.438Z,5.80
2019-04-14T23:45:21.041Z,5.07
2019-04-14T23:50:35.298Z,5.23
2019-04-14T23:55:50.982Z,4.93
